Time;durP1;ratioP1;P1;durP2;ratioP2;P2;SDS_P1;SDS_P2;PMS_P1;PMS_P2;Temp;Humidity;BMP_temperature;BMP_pressure;BME280_temperature;BME280_humidity;BME280_pressure;Samples;Min_cycle;Max_cycle;Signal;HPM_P1;HPM_P2
2021/11/08 00:01:57;;;;;;;5.83;2.67;;;6.00;1.00;;;;;;5021389;28;20284;-71
2021/11/08 00:04:23;;;;;;;4.27;2.93;;;6.00;1.00;;;;;;5006636;28;20320;-70
2021/11/08 00:06:52;;;;;;;6.37;2.83;;;5.90;1.00;;;;;;5024850;28;20298;-70
2021/11/08 00:09:19;;;;;;;4.63;2.60;;;5.90;1.00;;;;;;5012780;28;20202;-70
2021/11/08 00:11:45;;;;;;;3.90;3.00;;;5.80;1.00;;;;;;5012781;28;20196;-70
2021/11/08 00:14:15;;;;;;;5.70;2.97;;;5.70;1.00;;;;;;5011130;28;20195;-70
2021/11/08 00:16:53;;;;;;;4.10;2.80;;;5.70;1.00;;;;;;5009325;28;20273;-72
2021/11/08 00:22:03;;;;;;;5.70;3.20;;;5.70;1.00;;;;;;5014511;28;20189;-70
2021/11/08 00:24:31;;;;;;;4.83;3.00;;;5.80;1.00;;;;;;5004913;28;20191;-70
2021/11/08 00:26:57;;;;;;;5.57;3.03;;;5.80;1.00;;;;;;5010949;28;20660;-70
2021/11/08 00:29:23;;;;;;;7.07;2.83;;;5.90;1.00;;;;;;5011687;28;20198;-70
2021/11/08 00:31:48;;;;;;;3.37;2.97;;;5.90;1.00;;;;;;5002230;28;20196;-70
2021/11/08 00:34:14;;;;;;;9.17;3.60;;;5.90;1.00;;;;;;5006238;28;20740;-71
2021/11/08 00:36:40;;;;;;;10.27;3.00;;;5.90;1.00;;;;;;5019754;28;20215;-70
2021/11/08 00:39:06;;;;;;;6.10;2.90;;;6.00;1.00;;;;;;5019941;28;20644;-70
2021/11/08 00:41:33;;;;;;;3.30;2.60;;;6.00;1.00;;;;;;5020390;28;20192;-71
2021/11/08 00:43:59;;;;;;;5.27;3.40;;;6.10;1.00;;;;;;5014409;28;20646;-70
2021/11/08 00:46:24;;;;;;;5.63;3.17;;;6.10;1.00;;;;;;5015988;28;20212;-70
2021/11/08 00:48:51;;;;;;;4.33;2.80;;;6.00;1.00;;;;;;5024939;28;20279;-70
2021/11/08 00:51:18;;;;;;;6.53;3.80;;;6.10;1.00;;;;;;5014231;28;20631;-70
2021/11/08 00:53:44;;;;;;;5.20;3.33;;;6.10;1.00;;;;;;5011284;28;20245;-71
2021/11/08 00:56:15;;;;;;;8.57;2.93;;;6.10;1.00;;;;;;5008444;28;20247;-70
2021/11/08 00:58:43;;;;;;;9.77;3.50;;;6.10;1.00;;;;;;5019437;28;20187;-70
2021/11/08 01:01:09;;;;;;;9.53;3.90;;;6.10;1.00;;;;;;5023180;28;20198;-70
2021/11/08 01:03:40;;;;;;;10.90;3.40;;;6.10;1.00;;;;;;5026121;28;20202;-70
2021/11/08 01:06:06;;;;;;;4.97;2.90;;;6.10;1.00;;;;;;5003892;28;20219;-71
2021/11/08 01:08:32;;;;;;;5.23;2.93;;;6.10;1.00;;;;;;4997209;28;20206;-71
2021/11/08 01:10:58;;;;;;;5.03;3.00;;;6.10;1.00;;;;;;5008738;28;20696;-71
2021/11/08 01:13:24;;;;;;;4.57;2.60;;;6.10;1.00;;;;;;5004630;28;20552;-70
2021/11/08 01:15:51;;;;;;;3.90;3.13;;;6.10;1.00;;;;;;5023050;28;20197;-70
2021/11/08 01:18:18;;;;;;;4.07;2.93;;;6.00;1.00;;;;;;5010327;28;20187;-70
2021/11/08 01:20:46;;;;;;;7.73;2.97;;;6.00;1.00;;;;;;5006746;28;20245;-70
2021/11/08 01:23:13;;;;;;;5.50;3.07;;;6.00;1.00;;;;;;5012962;28;20192;-70
2021/11/08 01:25:40;;;;;;;10.43;3.20;;;5.90;1.00;;;;;;5002733;28;20226;-70
2021/11/08 01:28:06;;;;;;;5.77;2.77;;;5.90;1.00;;;;;;5012470;28;20187;-70
2021/11/08 01:30:33;;;;;;;7.33;3.50;;;5.90;1.00;;;;;;4998484;28;20221;-72
2021/11/08 01:33:02;;;;;;;3.73;3.27;;;5.90;1.00;;;;;;5002615;28;20204;-71
2021/11/08 01:35:38;;;;;;;4.17;3.07;;;5.90;1.00;;;;;;5012529;28;20274;-70
2021/11/08 01:40:30;;;;;;;5.13;3.40;;;5.90;1.00;;;;;;5013693;28;20635;-70
2021/11/08 01:42:56;;;;;;;8.30;3.17;;;5.90;1.00;;;;;;5007343;28;20673;-71
2021/11/08 01:45:21;;;;;;;3.57;2.60;;;5.90;1.00;;;;;;5002933;28;20223;-72
2021/11/08 01:47:47;;;;;;;5.10;3.03;;;5.90;1.00;;;;;;5034200;28;20282;-70
2021/11/08 01:50:13;;;;;;;4.80;2.97;;;5.90;1.00;;;;;;5029259;28;20231;-71
2021/11/08 01:52:38;;;;;;;6.73;3.50;;;5.90;1.00;;;;;;4998942;28;20196;-71
2021/11/08 01:55:05;;;;;;;6.43;3.30;;;5.90;1.00;;;;;;5002903;28;20210;-70
2021/11/08 01:57:31;;;;;;;7.43;3.03;;;6.00;1.00;;;;;;5021404;28;20192;-70
2021/11/08 02:00:00;;;;;;;4.40;3.00;;;6.10;1.00;;;;;;5002582;28;20450;-70
2021/11/08 02:02:26;;;;;;;8.30;3.23;;;6.30;1.00;;;;;;5006436;28;20191;-70
2021/11/08 02:04:52;;;;;;;5.10;3.30;;;6.30;1.00;;;;;;5014005;28;20697;-70
2021/11/08 02:07:18;;;;;;;2.80;2.60;;;6.20;1.00;;;;;;5013984;28;20225;-70
2021/11/08 02:09:43;;;;;;;3.20;2.50;;;6.10;1.00;;;;;;5019051;28;20245;-70
2021/11/08 02:12:10;;;;;;;3.23;2.90;;;6.10;1.00;;;;;;5014028;28;20234;-70
2021/11/08 02:14:40;;;;;;;4.23;2.40;;;6.10;1.00;;;;;;5022996;28;20195;-71
2021/11/08 02:17:07;;;;;;;5.63;2.70;;;6.10;1.00;;;;;;5016244;28;20203;-70
2021/11/08 02:19:33;;;;;;;4.07;2.80;;;6.10;1.00;;;;;;5017318;28;20196;-71
2021/11/08 02:22:01;;;;;;;3.00;2.67;;;6.10;1.00;;;;;;5001578;28;20235;-71
2021/11/08 02:24:28;;;;;;;4.23;2.53;;;6.00;1.00;;;;;;5009069;28;20187;-71
2021/11/08 02:26:54;;;;;;;3.90;2.77;;;6.00;1.00;;;;;;5010293;28;20214;-70
2021/11/08 02:29:20;;;;;;;6.07;2.43;;;6.00;1.00;;;;;;5029246;28;20195;-70
2021/11/08 02:31:46;;;;;;;6.90;3.13;;;6.00;1.00;;;;;;5019965;28;20199;-70
2021/11/08 02:34:12;;;;;;;6.37;3.30;;;6.00;1.00;;;;;;4999901;28;20230;-70
2021/11/08 02:36:41;;;;;;;6.17;3.43;;;6.00;1.00;;;;;;5010535;28;20230;-70
2021/11/08 02:39:37;;;;;;;5.10;3.07;;;6.00;1.00;;;;;;5010096;28;20246;-70
2021/11/08 02:41:59;;;;;;;5.03;3.10;;;6.00;1.00;;;;;;5002070;28;20744;-70
2021/11/08 02:44:25;;;;;;;4.83;2.93;;;6.00;1.00;;;;;;5011674;28;20238;-70
2021/11/08 02:46:53;;;;;;;15.63;3.50;;;6.10;1.00;;;;;;5021994;28;20227;-70
2021/11/08 02:49:24;;;;;;;4.70;2.67;;;6.10;1.00;;;;;;5025806;28;20195;-70
2021/11/08 02:51:59;;;;;;;3.53;2.70;;;6.20;1.00;;;;;;5016354;28;20192;-70
2021/11/08 02:54:39;;;;;;;3.83;2.97;;;6.20;1.00;;;;;;5004561;28;20182;-70
2021/11/08 02:57:06;;;;;;;3.93;2.73;;;6.20;1.00;;;;;;5029914;28;20188;-70
2021/11/08 02:59:35;;;;;;;4.73;3.43;;;6.20;1.00;;;;;;5015648;28;20207;-71
2021/11/08 03:02:02;;;;;;;3.80;3.50;;;6.20;1.00;;;;;;5021490;28;20204;-70
2021/11/08 03:04:31;;;;;;;5.90;2.80;;;6.10;1.00;;;;;;5017388;28;20273;-70
2021/11/08 03:06:57;;;;;;;4.17;3.03;;;6.10;1.00;;;;;;5005553;28;20229;-70
2021/11/08 03:09:29;;;;;;;5.43;3.63;;;6.20;1.00;;;;;;5018675;28;20199;-71
2021/11/08 03:11:55;;;;;;;3.93;2.83;;;6.20;1.00;;;;;;4998603;28;20194;-70
2021/11/08 03:14:25;;;;;;;4.47;3.30;;;6.30;1.00;;;;;;5015379;28;20294;-70
2021/11/08 03:16:56;;;;;;;4.90;2.97;;;6.30;1.00;;;;;;5020082;28;20205;-70
2021/11/08 03:19:34;;;;;;;6.47;3.40;;;6.40;1.00;;;;;;5015787;28;20286;-70
2021/11/08 03:22:01;;;;;;;2.87;2.67;;;6.50;1.00;;;;;;5007421;28;20197;-70
2021/11/08 03:27:05;;;;;;;5.47;3.37;;;6.30;1.00;;;;;;5014651;28;20219;-70
2021/11/08 03:29:31;;;;;;;8.93;3.30;;;6.10;1.00;;;;;;5009216;28;20293;-70
2021/11/08 03:31:57;;;;;;;4.23;3.07;;;6.10;1.00;;;;;;5014232;28;20601;-71
2021/11/08 03:34:23;;;;;;;4.80;3.43;;;6.00;1.00;;;;;;5024320;28;20199;-71
2021/11/08 03:36:50;;;;;;;3.80;3.13;;;6.00;1.00;;;;;;5024591;28;20214;-70
2021/11/08 03:39:16;;;;;;;7.07;3.47;;;6.00;1.00;;;;;;5000313;28;20259;-71
2021/11/08 03:41:43;;;;;;;5.33;3.53;;;5.90;1.00;;;;;;4997387;28;20205;-71
2021/11/08 03:44:09;;;;;;;10.57;4.13;;;6.10;1.00;;;;;;5010517;28;20618;-70
2021/11/08 03:46:35;;;;;;;4.47;3.40;;;5.80;1.00;;;;;;5007805;28;20220;-71
2021/11/08 03:49:01;;;;;;;8.87;3.30;;;5.80;1.00;;;;;;5030359;28;20247;-71
2021/11/08 03:51:27;;;;;;;4.10;2.87;;;5.80;1.00;;;;;;4996532;28;20187;-70
2021/11/08 03:53:53;;;;;;;4.37;3.10;;;5.80;1.00;;;;;;5015536;28;20303;-72
2021/11/08 03:56:19;;;;;;;6.00;3.47;;;5.80;1.00;;;;;;4996803;28;20291;-70
2021/11/08 03:58:45;;;;;;;5.50;3.40;;;5.80;1.00;;;;;;4998394;28;20472;-70
2021/11/08 04:01:11;;;;;;;7.00;3.07;;;5.80;1.00;;;;;;5030636;28;20675;-70
2021/11/08 04:03:36;;;;;;;5.63;3.43;;;5.80;1.00;;;;;;5021967;28;20537;-70
2021/11/08 04:06:03;;;;;;;7.27;3.30;;;5.80;1.00;;;;;;5011604;28;20215;-70
2021/11/08 04:08:29;;;;;;;7.50;3.43;;;5.80;1.00;;;;;;5007815;28;20227;-70
2021/11/08 04:10:57;;;;;;;5.87;3.60;;;5.90;1.00;;;;;;4998615;28;20255;-70
2021/11/08 04:13:34;;;;;;;3.93;3.30;;;5.90;1.00;;;;;;5015236;28;20191;-70
2021/11/08 04:16:02;;;;;;;9.00;3.63;;;5.90;1.00;;;;;;5007868;28;20647;-70
2021/11/08 04:18:29;;;;;;;5.93;3.33;;;5.90;1.00;;;;;;5004738;28;20236;-70
2021/11/08 04:20:57;;;;;;;5.13;3.37;;;5.90;1.00;;;;;;5014368;28;20559;-70
2021/11/08 04:23:24;;;;;;;3.57;2.73;;;6.10;1.00;;;;;;5006710;28;20190;-71
2021/11/08 04:25:52;;;;;;;7.10;3.60;;;6.10;1.00;;;;;;5012448;28;20742;-70
2021/11/08 04:28:18;;;;;;;8.93;3.53;;;6.10;1.00;;;;;;5024440;28;20199;-71
2021/11/08 04:30:44;;;;;;;3.17;2.60;;;6.00;1.00;;;;;;5009462;28;20206;-70
2021/11/08 04:33:21;;;;;;;7.03;3.07;;;6.10;1.00;;;;;;5008815;28;20238;-70
2021/11/08 04:36:03;;;;;;;7.73;3.73;;;5.80;1.00;;;;;;5004568;28;20273;-70
2021/11/08 04:51:46;;;;;;;5.20;3.80;;;5.70;1.00;;;;;;5016267;28;20637;-70
2021/11/08 05:21:28;;;;;;;7.47;3.37;;;5.50;1.00;;;;;;5016016;28;20288;-70
2021/11/08 05:30:08;;;;;;;5.47;2.93;;;5.60;1.00;;;;;;5014810;28;20251;-68
2021/11/08 05:32:08;;;;;;;4.67;3.33;;;5.60;1.00;;;;;;5006411;28;20689;-69
2021/11/08 05:34:34;;;;;;;7.73;3.50;;;5.60;1.00;;;;;;5002981;28;20195;-70
2021/11/08 05:37:00;;;;;;;5.63;3.33;;;5.60;1.00;;;;;;5011934;28;20200;-71
2021/11/08 05:39:26;;;;;;;5.07;3.43;;;5.50;1.00;;;;;;5009598;28;20248;-71
2021/11/08 05:41:52;;;;;;;5.27;3.70;;;5.60;1.00;;;;;;5016465;28;20593;-71
2021/11/08 05:44:17;;;;;;;7.40;3.53;;;5.50;1.00;;;;;;5009067;28;20191;-71
2021/11/08 05:46:43;;;;;;;8.23;3.90;;;5.50;1.00;;;;;;5022518;28;20236;-69
2021/11/08 05:49:09;;;;;;;6.27;3.70;;;5.60;1.00;;;;;;5005625;28;22375;-70
2021/11/08 05:51:35;;;;;;;9.47;4.13;;;5.50;1.00;;;;;;5011637;28;20197;-71
2021/11/08 05:54:01;;;;;;;7.17;4.53;;;5.50;1.00;;;;;;5005977;28;20272;-69
2021/11/08 05:56:37;;;;;;;4.13;3.33;;;5.40;1.00;;;;;;5010805;28;20280;-72
2021/11/08 06:00:24;;;;;;;6.97;3.73;;;5.40;1.00;;;;;;5008900;28;20200;-70
2021/11/08 06:51:12;;;;;;;8.23;4.53;;;5.60;1.00;;;;;;5012083;28;20676;-70
2021/11/08 06:53:38;;;;;;;6.63;4.40;;;5.60;1.00;;;;;;5008641;28;20202;-69
2021/11/08 06:56:04;;;;;;;5.80;4.90;;;5.60;1.00;;;;;;5012237;28;20286;-70
2021/11/08 06:58:30;;;;;;;4.53;3.93;;;5.70;1.00;;;;;;5007363;28;20321;-70
2021/11/08 07:00:57;;;;;;;5.20;3.47;;;5.70;1.00;;;;;;5017309;28;20200;-70
2021/11/08 07:03:22;;;;;;;5.53;4.50;;;5.70;1.00;;;;;;5009649;28;20237;-71
2021/11/08 07:05:48;;;;;;;7.47;5.00;;;5.70;1.00;;;;;;5025725;28;20908;-70
2021/11/08 07:08:15;;;;;;;4.17;3.57;;;5.80;1.00;;;;;;5013395;28;20624;-70
2021/11/08 07:10:41;;;;;;;6.63;4.27;;;5.80;1.00;;;;;;5006457;28;20198;-72
2021/11/08 07:13:07;;;;;;;14.03;5.03;;;5.70;1.00;;;;;;4996019;28;20561;-70
2021/11/08 07:15:33;;;;;;;6.77;4.60;;;5.70;1.00;;;;;;5030009;28;20628;-72
2021/11/08 07:17:59;;;;;;;7.03;4.63;;;5.70;1.00;;;;;;5005638;28;20778;-70
2021/11/08 07:20:25;;;;;;;8.73;5.03;;;5.80;1.00;;;;;;5035421;28;20216;-70
2021/11/08 07:22:52;;;;;;;5.20;4.33;;;5.80;1.00;;;;;;5007029;28;20195;-71
2021/11/08 07:25:18;;;;;;;7.93;5.03;;;5.80;1.00;;;;;;5024995;28;20289;-70
2021/11/08 07:27:44;;;;;;;7.13;4.97;;;5.80;1.00;;;;;;5005536;28;20194;-70
2021/11/08 07:30:10;;;;;;;9.43;5.33;;;5.80;1.00;;;;;;5007527;28;20545;-70
2021/11/08 07:32:36;;;;;;;7.10;4.73;;;5.90;1.00;;;;;;5009012;28;20188;-70
2021/11/08 07:35:02;;;;;;;6.77;4.73;;;5.90;1.00;;;;;;5011465;28;20192;-70
2021/11/08 07:37:28;;;;;;;7.87;4.80;;;5.90;1.00;;;;;;5013250;28;20249;-71
2021/11/08 07:39:54;;;;;;;10.87;5.00;;;6.00;1.00;;;;;;5006851;28;20189;-71
2021/11/08 07:42:20;;;;;;;11.67;4.60;;;5.90;1.00;;;;;;5015119;28;20200;-72
2021/11/08 07:44:46;;;;;;;13.23;4.97;;;6.00;1.00;;;;;;5028610;28;20561;-70
2021/11/08 07:47:12;;;;;;;9.77;4.40;;;6.10;1.00;;;;;;5021285;28;20219;-71
2021/11/08 07:49:38;;;;;;;10.07;5.13;;;6.00;1.00;;;;;;5011320;28;20200;-71
2021/11/08 07:52:04;;;;;;;6.37;4.63;;;6.10;1.00;;;;;;5019746;28;20271;-72
2021/11/08 07:54:32;;;;;;;7.80;5.07;;;6.10;1.00;;;;;;5007177;28;20238;-71
2021/11/08 07:56:58;;;;;;;6.37;4.53;;;6.10;1.00;;;;;;5007945;28;20638;-70
2021/11/08 07:59:24;;;;;;;7.50;4.97;;;6.10;1.00;;;;;;5006600;28;21785;-70
2021/11/08 08:01:50;;;;;;;6.10;4.27;;;6.10;1.00;;;;;;5000548;28;20655;-70
2021/11/08 08:04:16;;;;;;;7.50;4.43;;;6.10;1.00;;;;;;5009388;28;20613;-71
2021/11/08 08:06:44;;;;;;;8.23;4.67;;;6.20;1.00;;;;;;5024660;28;20215;-71
2021/11/08 08:09:10;;;;;;;6.67;4.70;;;6.20;1.00;;;;;;5020139;28;20200;-73
2021/11/08 08:11:36;;;;;;;10.43;4.57;;;6.40;1.00;;;;;;5019941;28;20189;-71
2021/11/08 08:14:02;;;;;;;9.27;3.77;;;6.50;1.00;;;;;;5017842;28;20188;-72
2021/11/08 08:16:28;;;;;;;6.33;3.73;;;6.60;1.00;;;;;;5013000;28;20544;-72
2021/11/08 08:18:54;;;;;;;8.60;4.77;;;6.60;1.00;;;;;;5007602;28;20723;-71
2021/11/08 08:21:22;;;;;;;4.20;3.80;;;6.70;1.00;;;;;;5008280;28;20189;-70
2021/11/08 08:23:53;;;;;;;5.77;4.10;;;6.70;1.00;;;;;;5007607;28;20191;-69
2021/11/08 08:26:20;;;;;;;6.93;4.50;;;6.80;1.00;;;;;;5004954;28;20255;-70
2021/11/08 08:28:46;;;;;;;5.40;3.80;;;6.90;1.00;;;;;;5019755;28;20245;-66
2021/11/08 08:31:11;;;;;;;6.23;4.37;;;7.00;1.00;;;;;;5008756;28;20490;-71
2021/11/08 08:33:38;;;;;;;6.23;3.80;;;7.20;1.00;;;;;;5034021;28;20282;-71
2021/11/08 08:36:04;;;;;;;6.63;4.17;;;7.40;1.00;;;;;;5011217;28;20278;-72
2021/11/08 08:38:30;;;;;;;6.50;4.03;;;7.40;1.00;;;;;;5024077;28;20191;-71
2021/11/08 08:40:56;;;;;;;7.27;4.40;;;7.30;1.00;;;;;;5012936;28;20195;-70
2021/11/08 08:43:24;;;;;;;7.97;4.20;;;7.60;1.00;;;;;;5016093;28;20184;-71
2021/11/08 08:45:50;;;;;;;6.40;4.30;;;7.40;1.00;;;;;;5008056;28;20236;-70
2021/11/08 08:48:16;;;;;;;12.77;4.37;;;7.40;1.00;;;;;;4996506;28;20246;-70
2021/11/08 08:50:43;;;;;;;7.73;4.40;;;7.50;1.00;;;;;;5003393;28;20515;-70
2021/11/08 08:53:09;;;;;;;8.90;4.37;;;7.40;1.00;;;;;;5007572;28;20196;-69
2021/11/08 08:55:37;;;;;;;10.77;4.53;;;7.40;1.00;;;;;;5031582;28;20194;-70
2021/11/08 08:58:04;;;;;;;7.97;4.80;;;7.30;1.00;;;;;;5016795;28;20196;-70
2021/11/08 09:00:29;;;;;;;10.97;4.30;;;7.30;1.00;;;;;;5001774;28;20314;-70
2021/11/08 09:02:57;;;;;;;9.10;4.97;;;7.40;1.00;;;;;;5024462;28;20271;-69
2021/11/08 09:05:25;;;;;;;13.20;4.83;;;7.40;1.00;;;;;;5013407;28;20211;-69
2021/11/08 09:07:52;;;;;;;5.90;4.30;;;7.50;1.00;;;;;;5040050;28;20651;-69
2021/11/08 09:10:18;;;;;;;8.47;4.53;;;7.60;1.00;;;;;;5004261;28;20185;-69
2021/11/08 09:12:43;;;;;;;7.10;4.80;;;7.60;1.00;;;;;;5018317;28;20189;-69
2021/11/08 09:15:10;;;;;;;5.20;4.50;;;7.90;1.00;;;;;;5018056;28;20584;-69
2021/11/08 09:17:36;;;;;;;8.43;4.70;;;8.00;1.00;;;;;;5012472;28;20280;-69
2021/11/08 09:20:03;;;;;;;6.20;4.70;;;7.90;1.00;;;;;;4999116;28;20289;-70
2021/11/08 09:22:28;;;;;;;6.43;4.30;;;9.00;1.00;;;;;;5023461;28;20195;-70
2021/11/08 09:24:55;;;;;;;7.47;4.67;;;8.00;1.00;;;;;;5016441;28;20198;-71
2021/11/08 09:27:21;;;;;;;6.47;4.80;;;8.20;1.00;;;;;;5006702;28;20244;-70
2021/11/08 09:29:46;;;;;;;11.33;4.80;;;8.20;1.00;;;;;;5006621;28;20741;-70
2021/11/08 09:32:12;;;;;;;8.37;5.20;;;8.10;1.00;;;;;;5012413;28;20203;-69
2021/11/08 09:34:46;;;;;;;8.93;5.53;;;8.30;1.00;;;;;;5023423;28;20186;-69
2021/11/08 09:37:16;;;;;;;11.47;4.70;;;8.40;1.00;;;;;;5015122;28;20202;-70
2021/11/08 09:39:42;;;;;;;6.00;4.93;;;8.50;1.00;;;;;;5019513;28;20198;-70
2021/11/08 09:42:17;;;;;;;9.37;4.80;;;8.70;1.00;;;;;;5032298;28;20188;-70
2021/11/08 09:44:44;;;;;;;7.60;5.03;;;9.00;1.00;;;;;;5035240;28;20185;-70
2021/11/08 09:47:10;;;;;;;5.93;4.37;;;9.00;1.00;;;;;;5044566;28;20222;-68
2021/11/08 09:49:39;;;;;;;6.33;4.17;;;9.20;1.00;;;;;;5025671;28;20631;-71
2021/11/08 09:52:05;;;;;;;5.67;4.37;;;9.50;1.00;;;;;;5037806;28;20552;-69
2021/11/08 09:54:37;;;;;;;12.80;4.33;;;9.60;1.00;;;;;;5032994;28;20193;-71
2021/11/08 09:57:03;;;;;;;6.43;4.10;;;9.80;1.00;;;;;;5015247;28;20193;-71
2021/11/08 09:59:32;;;;;;;5.83;3.67;;;9.80;1.00;;;;;;5001491;28;20195;-71
2021/11/08 10:01:59;;;;;;;9.27;4.70;;;9.60;1.00;;;;;;5004430;28;20186;-70
2021/11/08 10:04:24;;;;;;;4.83;3.93;;;9.60;1.00;;;;;;5012782;28;20192;-69
2021/11/08 10:06:50;;;;;;;8.03;4.13;;;9.50;1.00;;;;;;4995618;28;20226;-69
2021/11/08 10:09:19;;;;;;;8.40;4.67;;;9.60;1.00;;;;;;5001656;28;20196;-70
2021/11/08 10:11:47;;;;;;;7.43;3.47;;;9.50;1.00;;;;;;5010672;28;20235;-69
2021/11/08 10:14:15;;;;;;;7.27;4.17;;;9.40;1.00;;;;;;5007924;28;20194;-71
2021/11/08 10:16:43;;;;;;;4.67;3.80;;;9.70;1.00;;;;;;4998569;28;20219;-70
2021/11/08 10:19:11;;;;;;;7.07;4.47;;;9.60;1.00;;;;;;5001251;28;20198;-71
2021/11/08 10:21:50;;;;;;;6.27;4.00;;;9.60;1.00;;;;;;5007417;28;20199;-70
2021/11/08 10:24:20;;;;;;;10.63;3.50;;;9.80;1.00;;;;;;5008935;28;20220;-70
2021/11/08 10:26:45;;;;;;;7.43;4.03;;;9.80;1.00;;;;;;5023083;28;20310;-70
2021/11/08 10:29:17;;;;;;;7.50;4.00;;;9.60;1.00;;;;;;5001762;28;20244;-71
2021/11/08 10:31:56;;;;;;;10.20;4.33;;;9.70;1.00;;;;;;5000208;28;20607;-71
2021/11/08 10:34:24;;;;;;;4.37;3.70;;;9.60;1.00;;;;;;5023115;28;20196;-71
2021/11/08 10:37:31;;;;;;;7.43;3.93;;;9.70;1.00;;;;;;5012855;28;20641;-70
2021/11/08 10:39:58;;;;;;;7.93;4.43;;;9.60;1.00;;;;;;5005083;28;20191;-70
2021/11/08 10:42:30;;;;;;;10.63;4.37;;;9.70;1.00;;;;;;5008437;28;20281;-72
2021/11/08 10:44:57;;;;;;;6.47;3.80;;;9.70;1.00;;;;;;5030924;28;20191;-70
2021/11/08 10:47:23;;;;;;;6.90;4.13;;;9.70;1.00;;;;;;5025978;28;20222;-70
2021/11/08 10:49:53;;;;;;;6.93;4.23;;;9.90;1.00;;;;;;5015086;28;20200;-71
2021/11/08 10:52:22;;;;;;;5.87;3.90;;;9.90;1.00;;;;;;5001303;28;20190;-71
2021/11/08 10:54:54;;;;;;;5.63;4.20;;;10.00;1.00;;;;;;5016492;28;20284;-70
2021/11/08 10:57:23;;;;;;;6.43;4.00;;;9.90;1.00;;;;;;5009278;28;20184;-70
2021/11/08 10:59:50;;;;;;;6.50;3.90;;;10.00;1.00;;;;;;5020662;28;20730;-71
2021/11/08 11:02:22;;;;;;;5.20;3.60;;;10.10;1.00;;;;;;5024670;28;20645;-70
2021/11/08 11:04:58;;;;;;;6.43;4.00;;;10.00;1.00;;;;;;5014418;28;20693;-70
2021/11/08 11:07:24;;;;;;;7.33;3.97;;;10.00;1.00;;;;;;5013443;28;20214;-71
2021/11/08 11:09:55;;;;;;;8.23;3.47;;;10.30;1.00;;;;;;5020904;28;20595;-70
2021/11/08 11:12:25;;;;;;;5.90;3.20;;;10.50;1.00;;;;;;5012183;28;20189;-71
2021/11/08 11:15:09;;;;;;;8.30;3.07;;;10.80;1.00;;;;;;5015155;28;20283;-70
2021/11/08 11:17:44;;;;;;;7.47;3.27;;;10.90;1.00;;;;;;5026513;28;20206;-71
2021/11/08 11:20:17;;;;;;;4.97;3.27;;;11.10;1.00;;;;;;5003957;28;20224;-70
2021/11/08 11:22:49;;;;;;;5.20;3.43;;;11.30;1.00;;;;;;5010398;28;20197;-70
2021/11/08 11:25:17;;;;;;;7.63;3.33;;;11.50;1.00;;;;;;4998296;28;20273;-70
2021/11/08 11:27:48;;;;;;;7.07;3.23;;;11.60;1.00;;;;;;5012884;28;20245;-70
2021/11/08 11:30:49;;;;;;;4.80;3.47;;;11.50;1.00;;;;;;5027213;28;20646;-70
2021/11/08 11:33:23;;;;;;;4.83;2.93;;;11.50;1.00;;;;;;5004277;28;20210;-71
2021/11/08 11:35:52;;;;;;;4.33;2.77;;;11.40;1.00;;;;;;5014479;28;20722;-71
2021/11/08 11:38:21;;;;;;;6.67;2.93;;;11.40;1.00;;;;;;5015900;28;20198;-71
2021/11/08 11:41:18;;;;;;;4.57;3.03;;;11.20;1.00;;;;;;4997663;28;20234;-70
2021/11/08 11:43:55;;;;;;;5.40;3.23;;;11.10;1.00;;;;;;4996031;28;20217;-71
2021/11/08 11:46:23;;;;;;;4.63;2.97;;;10.80;1.00;;;;;;5005825;28;20304;-70
2021/11/08 11:48:50;;;;;;;4.20;2.57;;;10.70;1.00;;;;;;5010170;28;20200;-71
2021/11/08 11:51:22;;;;;;;9.17;3.20;;;10.70;1.00;;;;;;5009490;28;20221;-70
2021/11/08 11:53:48;;;;;;;4.43;2.60;;;10.60;1.00;;;;;;5022403;28;20192;-70
2021/11/08 11:56:16;;;;;;;3.10;2.80;;;10.60;1.00;;;;;;5012693;28;20195;-68
2021/11/08 11:58:43;;;;;;;4.20;3.03;;;10.50;1.00;;;;;;5005108;28;20499;-70
2021/11/08 12:01:11;;;;;;;5.23;3.13;;;10.50;1.00;;;;;;5001419;28;20286;-70
2021/11/08 12:03:39;;;;;;;5.07;3.10;;;10.50;1.00;;;;;;5007508;28;20255;-68
2021/11/08 12:06:06;;;;;;;9.03;3.37;;;10.50;1.00;;;;;;5015494;28;20216;-69
2021/11/08 12:08:37;;;;;;;5.20;2.83;;;10.50;1.00;;;;;;5015458;28;20685;-70
2021/11/08 12:11:03;;;;;;;5.33;3.07;;;10.50;1.00;;;;;;5006195;28;20196;-69
2021/11/08 12:13:30;;;;;;;3.67;2.57;;;10.60;1.00;;;;;;5014095;28;20195;-69
2021/11/08 12:16:10;;;;;;;3.50;2.70;;;10.60;1.00;;;;;;5004201;28;20199;-70
2021/11/08 12:18:36;;;;;;;7.40;3.43;;;10.60;1.00;;;;;;5006051;28;20199;-69
2021/11/08 12:21:02;;;;;;;3.77;2.53;;;10.70;1.00;;;;;;5001936;28;20197;-69
2021/11/08 12:23:38;;;;;;;4.23;2.90;;;10.70;1.00;;;;;;5018363;28;20199;-69
2021/11/08 12:26:04;;;;;;;3.97;2.50;;;10.80;1.00;;;;;;5021724;28;20263;-69
2021/11/08 12:28:30;;;;;;;4.50;2.90;;;10.80;1.00;;;;;;5007641;28;20195;-70
2021/11/08 12:31:06;;;;;;;7.73;2.60;;;10.80;1.00;;;;;;5018630;28;20592;-70
2021/11/08 12:33:33;;;;;;;3.70;2.63;;;10.80;1.00;;;;;;5017491;28;20226;-70
2021/11/08 12:36:01;;;;;;;4.63;3.07;;;10.80;1.00;;;;;;5006696;28;20764;-70
2021/11/08 12:38:35;;;;;;;3.83;2.63;;;10.90;1.00;;;;;;4996779;28;20197;-70
2021/11/08 12:41:06;;;;;;;4.43;2.60;;;10.90;1.00;;;;;;5017461;28;20245;-70
2021/11/08 12:43:32;;;;;;;5.03;3.10;;;10.90;1.00;;;;;;5007011;28;20219;-70
2021/11/08 12:46:13;;;;;;;2.90;2.23;;;10.90;1.00;;;;;;5010088;28;20262;-69
2021/11/08 12:48:39;;;;;;;4.07;2.30;;;10.90;1.00;;;;;;4998654;28;20200;-70
2021/11/08 12:51:07;;;;;;;3.63;2.33;;;10.90;1.00;;;;;;4996334;28;20196;-69
2021/11/08 12:53:37;;;;;;;3.07;1.97;;;10.70;1.00;;;;;;4997260;28;20196;-69
2021/11/08 12:56:27;;;;;;;9.17;2.93;;;10.70;1.00;;;;;;5008508;28;20209;-70
2021/11/08 12:58:59;;;;;;;6.27;2.17;;;10.70;1.00;;;;;;5017288;28;20558;-69
2021/11/08 13:01:44;;;;;;;2.60;2.40;;;10.70;1.00;;;;;;5012025;28;20217;-70
2021/11/08 13:04:12;;;;;;;7.10;2.70;;;10.70;1.00;;;;;;5023759;28;20207;-69
2021/11/08 13:06:38;;;;;;;4.23;2.23;;;10.80;1.00;;;;;;5014779;28;20346;-69
2021/11/08 13:09:15;;;;;;;3.17;2.03;;;10.90;1.00;;;;;;5003429;28;20861;-69
2021/11/08 13:11:44;;;;;;;5.07;2.00;;;10.80;1.00;;;;;;5028923;28;20185;-69
2021/11/08 13:14:25;;;;;;;2.30;2.00;;;10.80;1.00;;;;;;4994825;28;20299;-70
2021/11/08 13:17:10;;;;;;;3.23;2.20;;;10.90;1.00;;;;;;5019643;28;20198;-70
2021/11/08 13:19:49;;;;;;;2.60;1.87;;;11.00;1.00;;;;;;5035735;28;20190;-70
2021/11/08 13:22:26;;;;;;;4.03;2.53;;;11.10;1.00;;;;;;5018435;28;20574;-70
2021/11/08 13:25:07;;;;;;;3.23;2.50;;;11.00;1.00;;;;;;5006840;28;20220;-70
2021/11/08 13:27:33;;;;;;;4.93;3.33;;;11.00;1.00;;;;;;5017261;28;20743;-70
2021/11/08 13:30:02;;;;;;;4.67;2.67;;;11.00;1.00;;;;;;5023206;28;20490;-70
2021/11/08 13:32:30;;;;;;;3.30;2.33;;;11.00;1.00;;;;;;5019543;28;20218;-71
2021/11/08 13:34:57;;;;;;;3.83;2.27;;;11.10;1.00;;;;;;5027791;28;20202;-70
2021/11/08 13:37:36;;;;;;;3.13;1.87;;;11.10;1.00;;;;;;5031308;28;20223;-68
2021/11/08 13:40:22;;;;;;;3.27;1.43;;;11.20;1.00;;;;;;5030591;28;21204;-71
2021/11/08 13:42:51;;;;;;;3.33;1.60;;;11.30;1.00;;;;;;5021935;28;20206;-70
2021/11/08 13:45:18;;;;;;;1.97;1.53;;;11.20;1.00;;;;;;5032542;28;20241;-70
2021/11/08 13:47:48;;;;;;;4.50;1.50;;;11.30;1.00;;;;;;5022752;28;20300;-71
2021/11/08 13:50:17;;;;;;;2.83;1.47;;;11.40;1.00;;;;;;5026439;28;20201;-71
2021/11/08 13:52:44;;;;;;;1.40;1.30;;;11.50;1.00;;;;;;5014455;28;20210;-71
2021/11/08 13:55:13;;;;;;;2.40;1.63;;;11.50;1.00;;;;;;5024750;28;20201;-70
2021/11/08 13:57:43;;;;;;;2.03;1.40;;;11.70;1.00;;;;;;5028276;28;20202;-70
2021/11/08 14:00:15;;;;;;;2.70;1.87;;;11.60;1.00;;;;;;5026666;28;20590;-70
2021/11/08 14:02:42;;;;;;;5.80;1.80;;;11.70;1.00;;;;;;5017550;28;20194;-68
2021/11/08 14:05:09;;;;;;;3.30;2.50;;;11.70;1.00;;;;;;5018269;28;20288;-70
2021/11/08 14:07:34;;;;;;;3.53;2.50;;;11.50;1.00;;;;;;5012975;28;20225;-70
2021/11/08 14:10:00;;;;;;;2.03;1.83;;;11.40;1.00;;;;;;5007388;28;20198;-70
2021/11/08 14:12:30;;;;;;;2.80;1.83;;;11.30;1.00;;;;;;5016358;28;20197;-70
2021/11/08 14:14:57;;;;;;;3.17;2.13;;;11.40;1.00;;;;;;5033063;28;20208;-71
2021/11/08 14:17:26;;;;;;;6.57;2.27;;;11.30;1.00;;;;;;5017256;28;20194;-70
2021/11/08 14:19:54;;;;;;;3.57;2.33;;;11.10;1.00;;;;;;5011464;28;20185;-70
2021/11/08 14:22:30;;;;;;;3.70;1.57;;;11.00;1.00;;;;;;5008511;28;20197;-71
2021/11/08 14:24:57;;;;;;;2.07;1.87;;;11.00;1.00;;;;;;5005719;28;20203;-71
2021/11/08 14:27:27;;;;;;;3.97;2.17;;;11.00;1.00;;;;;;5003384;28;20227;-70
2021/11/08 14:29:53;;;;;;;4.17;2.13;;;10.90;1.00;;;;;;5006283;28;20234;-71
2021/11/08 14:32:28;;;;;;;4.80;2.40;;;10.90;1.00;;;;;;5011384;28;20319;-69
2021/11/08 14:35:03;;;;;;;3.73;2.47;;;10.80;1.00;;;;;;5002908;28;20189;-70
2021/11/08 14:37:40;;;;;;;4.83;2.43;;;10.80;1.00;;;;;;5010287;28;20194;-70
2021/11/08 14:40:14;;;;;;;3.63;1.97;;;10.80;1.00;;;;;;5011432;28;20668;-70
2021/11/08 14:42:39;;;;;;;3.57;2.63;;;10.80;1.00;;;;;;5017758;28;20651;-70
2021/11/08 14:45:15;;;;;;;4.53;2.17;;;10.70;1.00;;;;;;5013914;28;20222;-70
2021/11/08 14:47:40;;;;;;;4.17;2.20;;;10.80;1.00;;;;;;5032012;28;20215;-71
2021/11/08 14:50:20;;;;;;;3.97;1.83;;;10.70;1.00;;;;;;5018258;28;20206;-72
2021/11/08 14:52:48;;;;;;;3.63;2.57;;;10.60;1.00;;;;;;4993008;28;20184;-70
2021/11/08 14:55:24;;;;;;;4.63;2.30;;;10.60;1.00;;;;;;5009041;28;20270;-70